createdAt,value
2022-07-25T00:00:30.262Z,30.51
2022-07-25T00:02:57.936Z,29.52
2022-07-25T00:05:25.754Z,30.63
2022-07-25T00:07:52.961Z,30.68
2022-07-25T00:10:20.399Z,30.65
2022-07-25T00:12:47.583Z,30.84
2022-07-25T00:15:14.776Z,31.20
2022-07-25T00:17:42.247Z,30.52
2022-07-25T00:20:09.613Z,31.16
2022-07-25T00:22:36.789Z,30.01
2022-07-25T00:25:04.476Z,30.78
2022-07-25T00:27:31.660Z,29.65
2022-07-25T00:29:58.850Z,30.04
2022-07-25T00:32:26.286Z,30.37
2022-07-25T00:34:53.478Z,30.18
2022-07-25T00:37:20.656Z,30.32
2022-07-25T00:39:48.098Z,29.58
2022-07-25T00:42:15.302Z,30.42
2022-07-25T00:44:42.496Z,30.42
2022-07-25T00:47:09.935Z,30.26
2022-07-25T00:49:37.091Z,29.81
2022-07-25T00:52:04.851Z,29.93
2022-07-25T00:54:32.290Z,30.09
2022-07-25T00:56:59.465Z,29.37
2022-07-25T00:59:26.648Z,29.84
2022-07-25T01:01:54.240Z,29.77
2022-07-25T01:04:21.500Z,29.54
2022-07-25T01:06:48.704Z,29.52
2022-07-25T01:09:16.221Z,29.93
2022-07-25T01:11:43.623Z,30.34
2022-07-25T01:14:10.792Z,30.42
2022-07-25T01:16:39.246Z,30.38
2022-07-25T01:19:07.231Z,30.74
2022-07-25T01:21:40.398Z,30.91
2022-07-25T01:24:08.200Z,31.04
2022-07-25T01:26:35.852Z,31.30
2022-07-25T01:29:03.434Z,31.38
2022-07-25T01:31:30.667Z,31.20
2022-07-25T01:33:57.935Z,31.30
2022-07-25T01:36:25.540Z,31.29
2022-07-25T01:38:54.158Z,31.34
2022-07-25T01:41:22.714Z,31.25
2022-07-25T01:43:50.321Z,31.13
2022-07-25T01:46:17.604Z,31.08
2022-07-25T01:48:44.903Z,31.17
2022-07-25T01:51:12.424Z,31.23
2022-07-25T01:53:39.737Z,31.19
2022-07-25T01:56:08.541Z,30.97
2022-07-25T01:58:37.640Z,30.92
2022-07-25T02:01:05.139Z,30.66
2022-07-25T02:03:34.085Z,30.93
2022-07-25T02:06:02.313Z,30.90
2022-07-25T02:08:29.876Z,30.90
2022-07-25T02:10:57.947Z,30.72
2022-07-25T02:13:25.797Z,30.59
2022-07-25T02:15:52.985Z,30.20
2022-07-25T02:18:20.502Z,30.19
2022-07-25T02:20:47.726Z,30.34
2022-07-25T02:23:14.901Z,30.31
2022-07-25T02:25:42.359Z,30.44
2022-07-25T02:28:10.578Z,30.41
2022-07-25T02:30:38.240Z,30.23
2022-07-25T02:33:05.793Z,30.36
2022-07-25T02:35:32.999Z,29.80
2022-07-25T02:38:00.306Z,30.08
2022-07-25T02:40:27.814Z,30.42
2022-07-25T02:42:54.989Z,29.56
2022-07-25T02:45:22.193Z,29.96
2022-07-25T02:47:49.746Z,30.22
2022-07-25T02:50:16.943Z,30.40
2022-07-25T02:52:44.167Z,30.38
2022-07-25T02:55:11.940Z,30.51
2022-07-25T02:57:39.166Z,30.48
2022-07-25T03:00:07.117Z,30.59
2022-07-25T03:02:34.665Z,30.47
2022-07-25T03:05:02.033Z,30.43
2022-07-25T03:07:29.205Z,30.41
2022-07-25T03:09:56.625Z,30.38
2022-07-25T03:12:23.801Z,30.28
2022-07-25T03:14:51.433Z,30.23
2022-07-25T03:17:18.877Z,30.30
2022-07-25T03:19:46.064Z,29.97
2022-07-25T03:22:13.256Z,30.06
2022-07-25T03:24:40.692Z,29.83
2022-07-25T03:27:07.860Z,30.02
2022-07-25T03:29:35.101Z,29.88
2022-07-25T03:32:02.634Z,29.72
2022-07-25T03:34:30.013Z,29.63
2022-07-25T03:36:57.191Z,29.65
2022-07-25T03:39:24.743Z,29.65
2022-07-25T03:41:52.943Z,29.74
2022-07-25T03:44:20.217Z,29.78
2022-07-25T03:46:47.720Z,29.89
2022-07-25T03:49:15.037Z,29.93
2022-07-25T03:51:42.498Z,29.84
2022-07-25T03:54:13.779Z,30.01
2022-07-25T03:56:44.032Z,29.84
2022-07-25T03:59:12.657Z,30.04
2022-07-25T04:01:41.493Z,30.09
2022-07-25T04:04:10.121Z,30.26
2022-07-25T04:06:37.733Z,29.99
2022-07-25T04:09:04.958Z,30.06
2022-07-25T04:11:32.727Z,30.11
2022-07-25T04:13:59.961Z,30.19
2022-07-25T04:16:27.795Z,29.94
2022-07-25T04:18:56.198Z,30.04
2022-07-25T04:21:24.573Z,30.70
2022-07-25T04:23:51.774Z,31.19
2022-07-25T04:26:19.673Z,30.32
2022-07-25T04:28:46.853Z,31.70
2022-07-25T04:31:14.640Z,31.49
2022-07-25T04:33:42.270Z,31.08
2022-07-25T04:36:10.039Z,31.95
2022-07-25T04:38:37.247Z,32.17
2022-07-25T04:41:04.794Z,32.04
2022-07-25T04:43:32.020Z,33.25
2022-07-25T04:45:59.771Z,33.32
2022-07-25T04:48:27.395Z,33.58
2022-07-25T04:50:55.946Z,34.02
2022-07-25T04:53:23.127Z,33.70
2022-07-25T04:55:50.591Z,34.05
2022-07-25T04:58:17.801Z,34.37
2022-07-25T05:00:45.072Z,34.34
2022-07-25T05:03:12.763Z,33.99
2022-07-25T05:05:39.917Z,33.64
2022-07-25T05:08:07.113Z,34.60
2022-07-25T05:10:34.613Z,34.29
2022-07-25T05:13:01.786Z,34.99
2022-07-25T05:15:28.947Z,34.91
2022-07-25T05:17:57.660Z,34.78
2022-07-25T05:20:24.889Z,34.02
2022-07-25T05:22:52.104Z,34.79
2022-07-25T05:25:19.553Z,33.87
2022-07-25T05:27:47.754Z,34.66
2022-07-25T05:30:15.273Z,34.31
2022-07-25T05:32:42.761Z,34.37
2022-07-25T05:35:10.237Z,34.09
2022-07-25T05:37:37.474Z,35.51
2022-07-25T05:40:05.821Z,33.95
2022-07-25T05:42:33.031Z,34.64
2022-07-25T05:45:00.429Z,35.27
2022-07-25T05:47:27.883Z,34.77
2022-07-25T05:49:55.107Z,33.47
2022-07-25T05:52:22.699Z,32.38
2022-07-25T05:54:50.285Z,32.36
2022-07-25T05:57:17.492Z,33.21
2022-07-25T05:59:44.714Z,32.04
2022-07-25T06:02:12.326Z,33.32
2022-07-25T06:04:39.843Z,33.29
2022-07-25T06:07:07.264Z,32.18
2022-07-25T06:09:35.657Z,32.69
2022-07-25T06:12:03.163Z,32.58
2022-07-25T06:14:31.884Z,31.38
2022-07-25T06:16:59.023Z,31.96
2022-07-25T06:19:26.633Z,30.04
2022-07-25T06:21:53.826Z,31.52
2022-07-25T06:24:20.981Z,30.81
2022-07-25T06:26:48.440Z,32.13
2022-07-25T06:29:15.612Z,30.60
2022-07-25T06:31:42.935Z,30.88
2022-07-25T06:34:14.809Z,31.23
2022-07-25T06:36:41.958Z,30.69
2022-07-25T06:39:09.372Z,30.98
2022-07-25T06:41:37.719Z,30.34
2022-07-25T06:44:05.344Z,30.89
2022-07-25T06:46:33.083Z,31.23
2022-07-25T06:49:00.740Z,31.50
2022-07-25T06:51:27.922Z,31.70
2022-07-25T06:53:55.258Z,31.57
2022-07-25T06:56:22.832Z,31.31
2022-07-25T06:58:50.171Z,31.60
2022-07-25T07:01:17.508Z,31.61
2022-07-25T07:03:45.043Z,32.22
2022-07-25T07:06:12.239Z,32.73
2022-07-25T07:08:39.425Z,32.25
2022-07-25T07:11:07.464Z,31.17
2022-07-25T07:13:34.667Z,32.45
2022-07-25T07:16:01.973Z,31.96
2022-07-25T07:18:29.446Z,31.01
2022-07-25T07:20:56.753Z,31.68
2022-07-25T07:23:24.089Z,30.85
2022-07-25T07:25:52.233Z,32.12
2022-07-25T07:28:19.398Z,32.62
2022-07-25T07:33:34.232Z,33.17
2022-07-25T07:36:01.873Z,33.51
2022-07-25T07:38:29.045Z,33.69
2022-07-25T07:40:57.547Z,32.38
2022-07-25T07:43:29.623Z,32.56
2022-07-25T07:46:00.742Z,31.89
2022-07-25T07:48:29.035Z,31.36
2022-07-25T07:50:56.469Z,32.82
2022-07-25T07:53:43.870Z,32.66
2022-07-25T07:56:12.148Z,33.11
2022-07-25T07:58:39.953Z,33.36
2022-07-25T08:01:07.305Z,32.90
2022-07-25T08:03:34.794Z,33.30
2022-07-25T08:06:01.992Z,34.13
2022-07-25T08:08:31.357Z,32.20
2022-07-25T08:10:59.649Z,33.71
2022-07-25T08:13:28.512Z,34.14
2022-07-25T08:15:58.428Z,34.43
2022-07-25T08:18:27.161Z,33.61
2022-07-25T08:20:54.684Z,31.66
2022-07-25T08:23:22.548Z,33.26
2022-07-25T08:25:50.096Z,34.24
2022-07-25T08:28:17.406Z,34.75
2022-07-25T08:30:44.620Z,35.36
2022-07-25T08:33:21.865Z,35.27
2022-07-25T08:35:53.740Z,34.18
2022-07-25T08:38:21.796Z,34.07
2022-07-25T08:40:48.959Z,34.31
2022-07-25T08:43:16.391Z,34.66
2022-07-25T08:45:44.882Z,34.55
2022-07-25T08:48:12.127Z,34.51
2022-07-25T08:50:39.348Z,35.09
2022-07-25T08:53:31.707Z,33.31
2022-07-25T08:55:53.977Z,33.80
2022-07-25T08:58:21.630Z,34.10
2022-07-25T09:00:48.806Z,33.26
2022-07-25T09:03:16.165Z,34.41
2022-07-25T09:05:45.616Z,33.73
2022-07-25T09:08:13.625Z,33.77
2022-07-25T09:10:45.382Z,34.40
2022-07-25T09:13:14.285Z,33.98
2022-07-25T09:15:48.681Z,33.03
2022-07-25T09:18:17.809Z,32.56
2022-07-25T09:20:46.236Z,32.34
2022-07-25T09:23:36.430Z,33.03
2022-07-25T09:26:06.763Z,32.36
2022-07-25T09:28:40.914Z,33.63
2022-07-25T09:31:09.851Z,34.06
2022-07-25T09:33:51.809Z,34.71
2022-07-25T09:36:19.248Z,34.61
2022-07-25T09:38:55.955Z,34.65
2022-07-25T09:41:33.438Z,34.95
2022-07-25T09:44:00.627Z,35.36
2022-07-25T09:46:31.518Z,35.66
2022-07-25T09:48:59.420Z,34.89
2022-07-25T09:51:27.048Z,34.94
2022-07-25T09:53:54.496Z,33.60
2022-07-25T09:56:21.694Z,34.22
2022-07-25T09:58:48.978Z,34.74
2022-07-25T10:01:20.841Z,35.27
2022-07-25T10:03:50.020Z,35.24
2022-07-25T10:06:20.724Z,35.94
2022-07-25T10:08:48.485Z,35.42
2022-07-25T10:11:22.587Z,35.50
2022-07-25T10:13:50.260Z,34.58
2022-07-25T10:16:18.319Z,34.47
2022-07-25T10:18:49.694Z,35.21
2022-07-25T10:21:26.103Z,35.64
2022-07-25T10:24:00.580Z,35.67
2022-07-25T10:26:28.178Z,35.98
2022-07-25T10:28:56.323Z,35.70
2022-07-25T10:31:27.974Z,36.16
2022-07-25T10:33:57.040Z,36.85
2022-07-25T10:36:25.499Z,34.88
2022-07-25T10:38:53.208Z,35.69
2022-07-25T10:41:23.916Z,36.64
2022-07-25T10:43:51.118Z,36.26
2022-07-25T10:46:18.947Z,35.64
2022-07-25T10:48:56.733Z,35.20
2022-07-25T10:51:26.736Z,35.28
2022-07-25T10:53:54.505Z,36.00
2022-07-25T10:56:26.369Z,34.69
2022-07-25T10:58:57.927Z,34.30
2022-07-25T11:01:26.683Z,35.14
2022-07-25T11:03:55.060Z,34.87
2022-07-25T11:06:38.264Z,34.54
2022-07-25T11:09:27.663Z,35.31
2022-07-25T11:11:56.096Z,34.74
2022-07-25T11:14:24.607Z,35.64
2022-07-25T11:16:52.691Z,34.89
2022-07-25T11:19:24.272Z,35.90
2022-07-25T11:21:55.866Z,35.76
2022-07-25T11:24:33.653Z,35.59
2022-07-25T11:27:01.087Z,35.66
2022-07-25T11:29:28.267Z,35.12
2022-07-25T11:32:06.011Z,35.51
2022-07-25T11:34:34.551Z,36.37
2022-07-25T11:37:03.928Z,36.34
2022-07-25T11:39:32.054Z,36.43
2022-07-25T11:42:07.633Z,36.60
2022-07-25T11:44:34.954Z,37.49
2022-07-25T11:47:03.145Z,36.75
2022-07-25T11:49:30.665Z,36.94
2022-07-25T11:51:57.859Z,36.13
2022-07-25T11:54:25.317Z,36.43
2022-07-25T11:56:52.489Z,36.43
2022-07-25T11:59:19.761Z,37.07
2022-07-25T12:01:47.979Z,37.24
2022-07-25T12:04:16.910Z,37.48
2022-07-25T12:06:45.501Z,36.92
2022-07-25T12:09:19.245Z,37.06
2022-07-25T12:11:47.748Z,37.09
2022-07-25T12:14:15.031Z,37.46
2022-07-25T12:16:42.466Z,35.70
2022-07-25T12:19:13.421Z,34.89
2022-07-25T12:21:40.595Z,36.26
2022-07-25T12:24:07.777Z,35.94
2022-07-25T12:26:35.208Z,36.59
2022-07-25T12:29:02.376Z,36.24
2022-07-25T12:31:29.723Z,36.53
2022-07-25T12:33:57.255Z,36.97
2022-07-25T12:36:24.525Z,37.23
2022-07-25T12:38:51.720Z,36.36
2022-07-25T12:41:22.769Z,37.21
2022-07-25T12:43:50.037Z,37.42
2022-07-25T12:46:17.553Z,35.78
2022-07-25T12:48:45.258Z,36.71
2022-07-25T12:51:12.493Z,35.16
2022-07-25T12:53:42.421Z,36.21
2022-07-25T12:56:10.195Z,36.76
2022-07-25T12:58:37.522Z,36.68
2022-07-25T13:01:05.949Z,37.06
2022-07-25T13:03:33.536Z,37.60
2022-07-25T13:06:00.690Z,37.96
2022-07-25T13:08:27.891Z,37.42
2022-07-25T13:10:55.333Z,37.88
2022-07-25T13:13:22.532Z,37.78
2022-07-25T13:15:49.748Z,38.03
2022-07-25T13:18:17.261Z,37.58
2022-07-25T13:20:44.451Z,37.13
2022-07-25T13:23:11.862Z,37.06
2022-07-25T13:25:39.331Z,37.50
2022-07-25T13:28:10.885Z,37.79
2022-07-25T13:30:38.907Z,38.04
2022-07-25T13:33:06.116Z,38.10
2022-07-25T13:35:38.891Z,37.97
2022-07-25T13:38:08.949Z,37.61
2022-07-25T13:40:40.696Z,36.57
2022-07-25T13:43:08.923Z,37.24
2022-07-25T13:45:36.125Z,36.24
2022-07-25T13:48:28.393Z,37.19
2022-07-25T13:50:51.352Z,37.26
2022-07-25T13:53:19.314Z,37.10
2022-07-25T13:55:46.571Z,37.85
2022-07-25T13:58:14.012Z,38.14
2022-07-25T14:00:41.486Z,37.45
2022-07-25T14:03:09.049Z,37.41
2022-07-25T14:05:36.536Z,37.32
2022-07-25T14:08:03.810Z,37.89
2022-07-25T14:10:32.292Z,37.86
2022-07-25T14:12:59.583Z,37.14
2022-07-25T14:15:26.928Z,37.19
2022-07-25T14:17:54.432Z,37.22
2022-07-25T14:20:21.969Z,37.45
2022-07-25T14:22:49.148Z,37.62
2022-07-25T14:25:16.566Z,37.97
2022-07-25T14:27:45.141Z,37.89
2022-07-25T14:30:12.657Z,37.98
2022-07-25T14:32:40.102Z,37.45
2022-07-25T14:35:08.468Z,37.71
2022-07-25T14:37:35.699Z,38.17
2022-07-25T14:40:03.900Z,38.10
2022-07-25T14:42:31.897Z,38.34
2022-07-25T14:44:59.074Z,36.77
2022-07-25T14:47:26.766Z,37.29
2022-07-25T14:49:54.754Z,36.53
2022-07-25T14:52:22.663Z,37.22
2022-07-25T14:54:50.213Z,36.18
2022-07-25T14:57:17.396Z,36.45
2022-07-25T14:59:44.587Z,37.28
2022-07-25T15:02:12.068Z,37.41
2022-07-25T15:04:39.337Z,38.09
2022-07-25T15:07:06.706Z,38.27
2022-07-25T15:09:34.152Z,38.24
2022-07-25T15:12:01.332Z,38.28
2022-07-25T15:14:28.579Z,38.31
2022-07-25T15:16:56.078Z,38.85
2022-07-25T15:19:23.266Z,38.07
2022-07-25T15:21:50.548Z,38.02
2022-07-25T15:24:19.012Z,38.13
2022-07-25T15:26:46.200Z,38.08
2022-07-25T15:29:18.645Z,38.60
2022-07-25T15:31:49.595Z,38.73
2022-07-25T15:34:16.864Z,38.26
2022-07-25T15:36:44.108Z,38.43
2022-07-25T15:39:11.825Z,38.69
2022-07-25T15:41:39.118Z,38.69
2022-07-25T15:44:06.493Z,38.96
2022-07-25T15:46:34.331Z,38.58
2022-07-25T15:49:02.581Z,38.68
2022-07-25T15:51:29.865Z,38.51
2022-07-25T15:53:57.333Z,37.62
2022-07-25T15:56:25.508Z,37.95
2022-07-25T15:58:52.771Z,37.74
2022-07-25T16:01:20.402Z,38.39
2022-07-25T16:03:48.007Z,37.10
2022-07-25T16:06:18.754Z,37.71
2022-07-25T16:08:47.027Z,37.78
2022-07-25T16:11:23.953Z,37.30
2022-07-25T16:13:51.219Z,37.96
2022-07-25T16:16:21.893Z,37.64
2022-07-25T16:18:49.227Z,38.09
2022-07-25T16:21:16.412Z,37.96
2022-07-25T16:23:45.751Z,36.62
2022-07-25T16:26:13.654Z,37.26
2022-07-25T16:28:41.043Z,37.25
2022-07-25T16:31:08.560Z,37.46
2022-07-25T16:33:35.788Z,37.53
2022-07-25T16:36:04.520Z,37.88
2022-07-25T16:38:32.188Z,38.15
2022-07-25T16:40:59.569Z,38.14
2022-07-25T16:43:26.759Z,38.38
2022-07-25T16:45:54.214Z,38.03
2022-07-25T16:48:21.743Z,38.29
2022-07-25T16:50:49.918Z,38.38
2022-07-25T16:53:17.388Z,38.39
2022-07-25T16:55:44.557Z,38.57
2022-07-25T16:58:11.837Z,38.42
2022-07-25T17:00:39.472Z,38.28
2022-07-25T17:03:06.804Z,36.89
2022-07-25T17:05:34.185Z,37.20
2022-07-25T17:08:01.672Z,37.82
2022-07-25T17:10:29.921Z,37.76
2022-07-25T17:12:57.161Z,37.83
2022-07-25T17:15:24.710Z,37.93
2022-07-25T17:17:51.886Z,37.76
2022-07-25T17:20:20.189Z,37.84
2022-07-25T17:22:47.653Z,37.66
2022-07-25T17:25:14.857Z,37.76
2022-07-25T17:27:42.037Z,37.61
2022-07-25T17:30:09.649Z,37.55
2022-07-25T17:32:36.883Z,37.72
2022-07-25T17:35:04.203Z,37.42
2022-07-25T17:37:31.682Z,37.28
2022-07-25T17:39:59.377Z,37.30
2022-07-25T17:42:26.543Z,37.11
2022-07-25T17:44:53.992Z,37.06
2022-07-25T17:47:21.788Z,37.22
2022-07-25T17:49:50.280Z,36.82
2022-07-25T17:52:17.890Z,36.64
2022-07-25T17:54:45.125Z,36.73
2022-07-25T17:57:12.488Z,36.65
2022-07-25T17:59:39.942Z,36.66
2022-07-25T18:02:07.182Z,36.55
2022-07-25T18:04:36.138Z,36.39
2022-07-25T18:07:03.816Z,36.36
2022-07-25T18:09:31.020Z,36.21
2022-07-25T18:12:00.252Z,35.98
2022-07-25T18:14:27.702Z,35.99
2022-07-25T18:16:54.980Z,35.71
2022-07-25T18:19:25.282Z,35.61
2022-07-25T18:21:52.670Z,35.87
2022-07-25T18:24:19.858Z,35.74
2022-07-25T18:26:47.331Z,35.71
2022-07-25T18:29:14.506Z,35.48
2022-07-25T18:31:41.860Z,35.53
2022-07-25T18:34:09.609Z,35.58
2022-07-25T18:36:37.193Z,35.51
2022-07-25T18:39:04.393Z,35.45
2022-07-25T18:41:33.105Z,35.49
2022-07-25T18:44:01.228Z,35.58
2022-07-25T18:46:30.234Z,35.29
2022-07-25T18:48:58.471Z,35.13
2022-07-25T18:51:25.705Z,35.08
2022-07-25T18:53:52.868Z,34.90
2022-07-25T18:56:20.293Z,35.07
2022-07-25T18:58:47.582Z,35.27
2022-07-25T19:01:14.802Z,35.18
2022-07-25T19:03:42.419Z,35.06
2022-07-25T19:06:09.689Z,35.02
2022-07-25T19:08:36.893Z,34.72
2022-07-25T19:11:04.529Z,34.75
2022-07-25T19:13:48.884Z,34.85
2022-07-25T19:16:17.890Z,34.78
2022-07-25T19:18:45.263Z,34.82
2022-07-25T19:21:12.445Z,34.35
2022-07-25T19:23:39.916Z,34.60
2022-07-25T19:26:07.448Z,34.41
2022-07-25T19:28:37.591Z,34.46
2022-07-25T19:31:05.236Z,34.31
2022-07-25T19:33:35.702Z,34.28
2022-07-25T19:36:04.134Z,34.31
2022-07-25T19:38:31.791Z,34.43
2022-07-25T19:40:59.144Z,34.01
2022-07-25T19:43:26.352Z,34.00
2022-07-25T19:45:54.078Z,34.11
2022-07-25T19:48:24.396Z,34.17
2022-07-25T19:50:51.881Z,34.04
2022-07-25T19:53:22.138Z,34.12
2022-07-25T19:55:52.672Z,34.22
2022-07-25T19:58:20.147Z,34.07
2022-07-25T20:00:47.311Z,34.23
2022-07-25T20:03:15.600Z,33.87
2022-07-25T20:05:42.924Z,33.93
2022-07-25T20:08:10.089Z,33.98
2022-07-25T20:10:38.069Z,33.75
2022-07-25T20:13:05.421Z,33.77
2022-07-25T20:15:32.677Z,33.92
2022-07-25T20:18:00.168Z,33.67
2022-07-25T20:20:27.354Z,33.60
2022-07-25T20:22:54.808Z,33.92
2022-07-25T20:25:22.273Z,33.90
2022-07-25T20:27:49.852Z,34.01
2022-07-25T20:30:17.273Z,34.15
2022-07-25T20:32:44.731Z,34.13
2022-07-25T20:35:11.971Z,34.05
2022-07-25T20:37:39.202Z,34.21
2022-07-25T20:40:07.417Z,34.26
2022-07-25T20:42:36.500Z,34.16
2022-07-25T20:45:04.541Z,34.26
2022-07-25T20:47:32.010Z,34.21
2022-07-25T20:49:59.245Z,34.07
2022-07-25T20:52:27.861Z,34.10
2022-07-25T20:54:55.324Z,34.14
2022-07-25T20:57:22.605Z,34.04
2022-07-25T20:59:49.805Z,34.12
2022-07-25T21:02:17.608Z,33.99
2022-07-25T21:04:44.959Z,34.03
2022-07-25T21:07:12.312Z,34.03
2022-07-25T21:09:40.032Z,33.95
2022-07-25T21:12:07.429Z,33.95
2022-07-25T21:14:34.662Z,33.89
2022-07-25T21:17:02.154Z,33.86
2022-07-25T21:19:29.968Z,33.71
2022-07-25T21:21:57.138Z,33.63
2022-07-25T21:24:24.609Z,33.74
2022-07-25T21:26:52.089Z,33.57
2022-07-25T21:29:19.294Z,33.49
2022-07-25T21:31:46.769Z,33.61
2022-07-25T21:34:13.955Z,33.70
2022-07-25T21:36:41.170Z,33.50
2022-07-25T21:39:09.012Z,33.57
2022-07-25T21:41:36.683Z,33.67
2022-07-25T21:44:03.969Z,33.66
2022-07-25T21:46:31.739Z,33.58
2022-07-25T21:49:17.772Z,33.65
2022-07-25T21:52:05.280Z,33.57
2022-07-25T21:54:32.517Z,33.55
2022-07-25T21:56:59.721Z,33.63
2022-07-25T21:59:27.189Z,33.62
2022-07-25T22:01:54.512Z,33.64
2022-07-25T22:04:22.057Z,33.51
2022-07-25T22:06:49.394Z,33.53
2022-07-25T22:09:16.556Z,33.51
2022-07-25T22:11:46.246Z,33.45
2022-07-25T22:14:14.162Z,33.51
2022-07-25T22:16:41.702Z,33.51
2022-07-25T22:19:09.900Z,33.48
2022-07-25T22:21:37.311Z,33.34
2022-07-25T22:24:04.621Z,33.39
2022-07-25T22:26:32.102Z,33.12
2022-07-25T22:28:59.304Z,33.27
2022-07-25T22:31:26.548Z,33.19
2022-07-25T22:33:54.026Z,33.21
2022-07-25T22:36:21.210Z,33.04
2022-07-25T22:38:50.005Z,33.18
2022-07-25T22:41:17.524Z,33.11
2022-07-25T22:43:57.039Z,33.04
2022-07-25T22:46:27.845Z,32.91
2022-07-25T22:48:55.169Z,33.07
2022-07-25T22:51:22.392Z,32.98
2022-07-25T22:53:49.870Z,32.90
2022-07-25T22:56:17.055Z,32.73
2022-07-25T22:58:46.686Z,32.69
2022-07-25T23:01:17.701Z,32.63
2022-07-25T23:03:45.408Z,32.30
2022-07-25T23:06:12.683Z,32.35
2022-07-25T23:08:40.484Z,32.52
2022-07-25T23:11:07.936Z,32.51
2022-07-25T23:13:35.534Z,32.67
2022-07-25T23:16:03.511Z,32.72
2022-07-25T23:18:31.623Z,32.42
2022-07-25T23:20:58.890Z,32.42
2022-07-25T23:23:26.391Z,32.43
2022-07-25T23:25:53.605Z,32.29
2022-07-25T23:28:21.047Z,32.23
2022-07-25T23:30:48.621Z,32.56
2022-07-25T23:33:15.900Z,32.58
2022-07-25T23:35:43.566Z,32.48
2022-07-25T23:38:11.110Z,32.63
2022-07-25T23:40:38.309Z,32.61
2022-07-25T23:43:05.506Z,32.56
2022-07-25T23:45:33.208Z,32.39
2022-07-25T23:48:01.099Z,32.51
2022-07-25T23:50:28.271Z,32.60
2022-07-25T23:52:55.774Z,32.49
2022-07-25T23:55:22.940Z,32.44
2022-07-25T23:57:50.125Z,32.42
